sensor_id;sensor_type;location;lat;lon;timestamp;pressure;altitude;pressure_sealevel;temperature;humidity
30073;BME280;16897;52.422;13.678;2022-11-02T00:01:42;101512.94;;;12.92;61.67
30073;BME280;16897;52.422;13.678;2022-11-02T00:05:44;101532.91;;;12.94;61.63
30073;BME280;16897;52.422;13.678;2022-11-02T00:09:46;101529.84;;;12.86;61.74
30073;BME280;16897;52.422;13.678;2022-11-02T00:13:47;101543.19;;;12.81;61.67
30073;BME280;16897;52.422;13.678;2022-11-02T00:17:54;101515.44;;;12.60;61.59
30073;BME280;16897;52.422;13.678;2022-11-02T00:21:57;101542.22;;;12.67;61.63
30073;BME280;16897;52.422;13.678;2022-11-02T00:26:01;101533.88;;;12.58;61.66
30073;BME280;16897;52.422;13.678;2022-11-02T00:30:03;101506.00;;;12.40;61.66
30073;BME280;16897;52.422;13.678;2022-11-02T00:34:05;101528.31;;;12.47;61.78
30073;BME280;16897;52.422;13.678;2022-11-02T00:38:06;101520.88;;;12.39;61.61
30073;BME280;16897;52.422;13.678;2022-11-02T00:42:08;101524.59;;;12.34;61.59
30073;BME280;16897;52.422;13.678;2022-11-02T00:46:10;101522.31;;;12.28;61.63
30073;BME280;16897;52.422;13.678;2022-11-02T00:50:11;101534.78;;;12.23;61.55
30073;BME280;16897;52.422;13.678;2022-11-02T00:54:14;101497.63;;;11.97;61.60
30073;BME280;16897;52.422;13.678;2022-11-02T00:58:16;101469.63;;;11.80;61.62
30073;BME280;16897;52.422;13.678;2022-11-02T01:02:18;101533.63;;;12.11;61.76
30073;BME280;16897;52.422;13.678;2022-11-02T01:06:20;101516.13;;;11.94;61.76
30073;BME280;16897;52.422;13.678;2022-11-02T01:10:22;101490.69;;;11.77;61.91
30073;BME280;16897;52.422;13.678;2022-11-02T01:14:24;101547.69;;;12.08;61.86
30073;BME280;16897;52.422;13.678;2022-11-02T01:18:25;101537.28;;;12.07;61.79
30073;BME280;16897;52.422;13.678;2022-11-02T01:22:27;101526.28;;;12.00;61.70
30073;BME280;16897;52.422;13.678;2022-11-02T01:26:28;101505.34;;;11.81;61.67
30073;BME280;16897;52.422;13.678;2022-11-02T01:30:30;101519.28;;;11.82;61.72
30073;BME280;16897;52.422;13.678;2022-11-02T01:34:32;101535.28;;;11.76;61.81
30073;BME280;16897;52.422;13.678;2022-11-02T01:38:33;101527.78;;;11.68;61.94
30073;BME280;16897;52.422;13.678;2022-11-02T01:42:35;101524.47;;;11.64;62.04
30073;BME280;16897;52.422;13.678;2022-11-02T01:46:41;101524.63;;;11.61;61.59
30073;BME280;16897;52.422;13.678;2022-11-02T01:50:45;101525.66;;;11.57;61.59
30073;BME280;16897;52.422;13.678;2022-11-02T01:54:55;101531.19;;;11.51;61.40
30073;BME280;16897;52.422;13.678;2022-11-02T01:59:03;101512.38;;;11.43;61.66
30073;BME280;16897;52.422;13.678;2022-11-02T02:03:13;101486.97;;;11.26;61.75
30073;BME280;16897;52.422;13.678;2022-11-02T02:07:21;101498.09;;;11.31;61.57
30073;BME280;16897;52.422;13.678;2022-11-02T02:11:32;101503.09;;;11.36;61.69
30073;BME280;16897;52.422;13.678;2022-11-02T02:29:17;101507.84;;;11.27;61.83
30073;BME280;16897;52.422;13.678;2022-11-02T02:37:40;101478.78;;;11.15;61.88
30073;BME280;16897;52.422;13.678;2022-11-02T02:41:53;101497.09;;;11.15;61.95
30073;BME280;16897;52.422;13.678;2022-11-02T02:46:02;101483.25;;;11.13;61.96
30073;BME280;16897;52.422;13.678;2022-11-02T02:50:16;101472.50;;;11.00;61.70
30073;BME280;16897;52.422;13.678;2022-11-02T02:54:30;101490.50;;;11.06;61.78
30073;BME280;16897;52.422;13.678;2022-11-02T02:58:57;101471.16;;;10.91;62.01
30073;BME280;16897;52.422;13.678;2022-11-02T03:03:02;101479.69;;;10.95;62.03
30073;BME280;16897;52.422;13.678;2022-11-02T03:07:07;101498.78;;;10.97;61.86
30073;BME280;16897;52.422;13.678;2022-11-02T03:11:15;101485.91;;;10.92;61.75
30073;BME280;16897;52.422;13.678;2022-11-02T03:15:40;101482.50;;;10.90;61.97
30073;BME280;16897;52.422;13.678;2022-11-02T03:19:54;101479.25;;;10.85;61.82
30073;BME280;16897;52.422;13.678;2022-11-02T03:28:22;101479.56;;;10.77;61.99
30073;BME280;16897;52.422;13.678;2022-11-02T03:32:54;101490.81;;;10.79;61.83
30073;BME280;16897;52.422;13.678;2022-11-02T03:37:17;101492.06;;;10.71;61.95
30073;BME280;16897;52.422;13.678;2022-11-02T03:41:22;101471.59;;;10.61;62.14
30073;BME280;16897;52.422;13.678;2022-11-02T03:45:33;101487.69;;;10.71;62.25
30073;BME280;16897;52.422;13.678;2022-11-02T03:49:39;101503.81;;;10.81;62.24
30073;BME280;16897;52.422;13.678;2022-11-02T03:53:58;101480.78;;;10.70;62.13
30073;BME280;16897;52.422;13.678;2022-11-02T03:58:09;101429.66;;;10.44;61.96
30073;BME280;16897;52.422;13.678;2022-11-02T04:02:14;101492.44;;;10.82;62.35
30073;BME280;16897;52.422;13.678;2022-11-02T04:06:17;101393.97;;;10.24;62.19
30073;BME280;16897;52.422;13.678;2022-11-02T04:10:20;101479.38;;;10.82;62.44
30073;BME280;16897;52.422;13.678;2022-11-02T04:14:22;101482.59;;;10.89;62.57
30073;BME280;16897;52.422;13.678;2022-11-02T04:18:42;101470.56;;;10.84;62.14
30073;BME280;16897;52.422;13.678;2022-11-02T04:23:05;101479.09;;;10.88;62.39
30073;BME280;16897;52.422;13.678;2022-11-02T04:27:27;101482.38;;;10.93;62.56
30073;BME280;16897;52.422;13.678;2022-11-02T04:31:31;101484.13;;;10.93;62.50
30073;BME280;16897;52.422;13.678;2022-11-02T04:35:34;101460.91;;;10.87;62.63
30073;BME280;16897;52.422;13.678;2022-11-02T04:39:37;101482.81;;;11.03;62.76
30073;BME280;16897;52.422;13.678;2022-11-02T04:43:39;101481.84;;;11.05;62.72
30073;BME280;16897;52.422;13.678;2022-11-02T04:47:42;101477.44;;;11.06;62.50
30073;BME280;16897;52.422;13.678;2022-11-02T04:51:44;101472.16;;;11.07;62.57
30073;BME280;16897;52.422;13.678;2022-11-02T04:55:46;101476.31;;;11.12;62.44
30073;BME280;16897;52.422;13.678;2022-11-02T04:59:48;101479.84;;;11.11;62.87
30073;BME280;16897;52.422;13.678;2022-11-02T05:03:52;101495.25;;;11.17;62.75
30073;BME280;16897;52.422;13.678;2022-11-02T05:07:54;101473.78;;;11.10;62.60
30073;BME280;16897;52.422;13.678;2022-11-02T05:11:57;101472.03;;;11.11;62.60
30073;BME280;16897;52.422;13.678;2022-11-02T05:16:00;101507.28;;;11.21;62.82
30073;BME280;16897;52.422;13.678;2022-11-02T05:20:04;101490.72;;;11.20;62.92
30073;BME280;16897;52.422;13.678;2022-11-02T05:24:06;101490.03;;;11.17;62.80
30073;BME280;16897;52.422;13.678;2022-11-02T05:28:08;101496.69;;;11.24;62.91
30073;BME280;16897;52.422;13.678;2022-11-02T05:32:10;101479.78;;;11.12;62.65
30073;BME280;16897;52.422;13.678;2022-11-02T05:36:12;101458.59;;;10.99;62.94
30073;BME280;16897;52.422;13.678;2022-11-02T05:40:18;101497.38;;;11.27;62.95
30073;BME280;16897;52.422;13.678;2022-11-02T05:44:20;101481.19;;;11.19;63.00
30073;BME280;16897;52.422;13.678;2022-11-02T05:48:24;101485.09;;;11.29;62.76
30073;BME280;16897;52.422;13.678;2022-11-02T05:52:26;101491.38;;;11.25;62.96
30073;BME280;16897;52.422;13.678;2022-11-02T05:56:27;101499.72;;;11.34;62.80
30073;BME280;16897;52.422;13.678;2022-11-02T06:00:29;101470.88;;;11.16;62.86
30073;BME280;16897;52.422;13.678;2022-11-02T06:04:30;101498.88;;;11.33;62.99
30073;BME280;16897;52.422;13.678;2022-11-02T06:08:34;101493.59;;;11.35;62.77
30073;BME280;16897;52.422;13.678;2022-11-02T06:12:36;101487.50;;;11.34;62.98
30073;BME280;16897;52.422;13.678;2022-11-02T06:16:37;101488.34;;;11.35;62.84
30073;BME280;16897;52.422;13.678;2022-11-02T06:20:39;101500.78;;;11.29;62.83
30073;BME280;16897;52.422;13.678;2022-11-02T06:24:41;101506.44;;;11.39;63.10
30073;BME280;16897;52.422;13.678;2022-11-02T06:28:42;101500.44;;;11.37;63.02
30073;BME280;16897;52.422;13.678;2022-11-02T06:32:49;101460.72;;;11.10;63.03
30073;BME280;16897;52.422;13.678;2022-11-02T06:36:51;101494.47;;;11.34;62.83
30073;BME280;16897;52.422;13.678;2022-11-02T06:40:58;101469.22;;;11.15;63.05
30073;BME280;16897;52.422;13.678;2022-11-02T06:45:00;101519.25;;;11.45;63.20
30073;BME280;16897;52.422;13.678;2022-11-02T06:49:03;101518.16;;;11.49;62.96
30073;BME280;16897;52.422;13.678;2022-11-02T06:53:04;101470.47;;;11.25;63.09
30073;BME280;16897;52.422;13.678;2022-11-02T06:57:06;101515.63;;;11.48;63.00
30073;BME280;16897;52.422;13.678;2022-11-02T07:01:07;101538.69;;;11.59;63.06
30073;BME280;16897;52.422;13.678;2022-11-02T07:05:09;101515.50;;;11.51;63.03
30073;BME280;16897;52.422;13.678;2022-11-02T07:09:11;101529.91;;;11.60;63.42
30073;BME280;16897;52.422;13.678;2022-11-02T07:13:13;101532.16;;;11.67;63.13
30073;BME280;16897;52.422;13.678;2022-11-02T07:17:14;101540.72;;;11.71;63.21
30073;BME280;16897;52.422;13.678;2022-11-02T07:21:16;101527.56;;;11.72;63.05
30073;BME280;16897;52.422;13.678;2022-11-02T07:25:18;101530.81;;;11.78;63.12
30073;BME280;16897;52.422;13.678;2022-11-02T07:29:19;101479.84;;;11.48;63.19
30073;BME280;16897;52.422;13.678;2022-11-02T07:33:22;101487.91;;;11.63;63.39
30073;BME280;16897;52.422;13.678;2022-11-02T07:37:23;101529.25;;;11.92;63.38
30073;BME280;16897;52.422;13.678;2022-11-02T07:41:25;101475.59;;;11.65;63.38
30073;BME280;16897;52.422;13.678;2022-11-02T07:45:27;101477.91;;;11.71;63.23
30073;BME280;16897;52.422;13.678;2022-11-02T07:49:30;101518.22;;;12.05;63.28
30073;BME280;16897;52.422;13.678;2022-11-02T07:53:32;101472.84;;;11.85;63.23
30073;BME280;16897;52.422;13.678;2022-11-02T07:57:34;101532.88;;;12.26;63.33
30073;BME280;16897;52.422;13.678;2022-11-02T08:01:35;101529.16;;;12.30;63.33
30073;BME280;16897;52.422;13.678;2022-11-02T08:05:40;101533.97;;;12.39;63.35
30073;BME280;16897;52.422;13.678;2022-11-02T08:09:42;101532.88;;;12.44;63.29
30073;BME280;16897;52.422;13.678;2022-11-02T08:13:43;101527.41;;;12.48;63.18
30073;BME280;16897;52.422;13.678;2022-11-02T08:17:45;101539.97;;;12.59;63.40
30073;BME280;16897;52.422;13.678;2022-11-02T08:21:48;101538.59;;;12.69;63.33
30073;BME280;16897;52.422;13.678;2022-11-02T08:25:50;101539.94;;;12.76;63.45
30073;BME280;16897;52.422;13.678;2022-11-02T08:29:52;101523.38;;;12.76;63.13
30073;BME280;16897;52.422;13.678;2022-11-02T08:33:55;101521.38;;;12.81;63.40
30073;BME280;16897;52.422;13.678;2022-11-02T08:37:57;101544.25;;;12.95;63.51
30073;BME280;16897;52.422;13.678;2022-11-02T08:42:00;101544.47;;;13.07;63.61
30073;BME280;16897;52.422;13.678;2022-11-02T08:46:02;101545.50;;;13.21;63.39
30073;BME280;16897;52.422;13.678;2022-11-02T08:50:04;101539.25;;;13.23;63.29
30073;BME280;16897;52.422;13.678;2022-11-02T08:54:06;101539.78;;;13.30;63.31
30073;BME280;16897;52.422;13.678;2022-11-02T08:58:08;101523.03;;;13.33;63.32
30073;BME280;16897;52.422;13.678;2022-11-02T09:02:10;101538.19;;;13.43;63.38
30073;BME280;16897;52.422;13.678;2022-11-02T09:06:11;101534.56;;;13.46;63.23
30073;BME280;16897;52.422;13.678;2022-11-02T09:10:13;101544.38;;;13.58;63.17
30073;BME280;16897;52.422;13.678;2022-11-02T09:14:14;101525.50;;;13.52;63.18
30073;BME280;16897;52.422;13.678;2022-11-02T09:18:16;101527.13;;;13.54;63.11
30073;BME280;16897;52.422;13.678;2022-11-02T09:22:17;101534.34;;;13.66;63.24
30073;BME280;16897;52.422;13.678;2022-11-02T09:26:19;101551.84;;;13.82;63.04
30073;BME280;16897;52.422;13.678;2022-11-02T09:30:22;101545.75;;;13.81;63.36
30073;BME280;16897;52.422;13.678;2022-11-02T09:34:24;101557.34;;;13.93;63.21
30073;BME280;16897;52.422;13.678;2022-11-02T09:38:25;101537.44;;;13.89;63.32
30073;BME280;16897;52.422;13.678;2022-11-02T09:47:01;101558.78;;;13.99;63.20
30073;BME280;16897;52.422;13.678;2022-11-02T09:51:13;101553.84;;;14.08;63.23
30073;BME280;16897;52.422;13.678;2022-11-02T09:55:22;101543.34;;;14.08;63.23
30073;BME280;16897;52.422;13.678;2022-11-02T09:59:27;101569.75;;;14.37;63.31
30073;BME280;16897;52.422;13.678;2022-11-02T10:17:16;101563.38;;;15.01;63.36
30073;BME280;16897;52.422;13.678;2022-11-02T10:21:37;101554.81;;;15.12;63.46
30073;BME280;16897;52.422;13.678;2022-11-02T10:25:38;101554.41;;;15.33;63.29
30073;BME280;16897;52.422;13.678;2022-11-02T10:29:56;101560.41;;;15.49;63.30
30073;BME280;16897;52.422;13.678;2022-11-02T10:34:29;101546.78;;;15.57;63.14
30073;BME280;16897;52.422;13.678;2022-11-02T10:43:40;101561.59;;;15.86;63.03
30073;BME280;16897;52.422;13.678;2022-11-02T10:52:33;101568.69;;;16.13;63.03
30073;BME280;16897;52.422;13.678;2022-11-02T10:56:35;101557.09;;;16.15;62.77
30073;BME280;16897;52.422;13.678;2022-11-02T11:00:37;101560.16;;;16.22;62.46
30073;BME280;16897;52.422;13.678;2022-11-02T11:04:40;101562.75;;;16.36;62.42
30073;BME280;16897;52.422;13.678;2022-11-02T11:08:44;101531.50;;;16.18;62.37
30073;BME280;16897;52.422;13.678;2022-11-02T11:12:47;101565.72;;;16.45;62.45
30073;BME280;16897;52.422;13.678;2022-11-02T11:16:52;101569.75;;;16.50;62.19
30073;BME280;16897;52.422;13.678;2022-11-02T11:20:55;101569.19;;;16.45;62.12
30073;BME280;16897;52.422;13.678;2022-11-02T11:25:22;101563.50;;;16.51;62.01
30073;BME280;16897;52.422;13.678;2022-11-02T11:29:25;101598.47;;;16.68;61.89
30073;BME280;16897;52.422;13.678;2022-11-02T11:33:30;101584.72;;;16.63;61.96
30073;BME280;16897;52.422;13.678;2022-11-02T11:37:33;101584.84;;;16.74;61.69
30073;BME280;16897;52.422;13.678;2022-11-02T11:41:39;101597.69;;;16.80;61.38
30073;BME280;16897;52.422;13.678;2022-11-02T11:45:56;101589.84;;;16.78;61.46
30073;BME280;16897;52.422;13.678;2022-11-02T11:50:02;101590.94;;;16.89;61.43
30073;BME280;16897;52.422;13.678;2022-11-02T11:54:29;101584.38;;;16.81;61.24
30073;BME280;16897;52.422;13.678;2022-11-02T11:58:33;101531.03;;;16.51;61.17
30073;BME280;16897;52.422;13.678;2022-11-02T12:02:36;101586.19;;;16.94;61.06
30073;BME280;16897;52.422;13.678;2022-11-02T12:20:39;101550.75;;;16.71;60.76
30073;BME280;16897;52.422;13.678;2022-11-02T12:25:13;101535.16;;;16.68;60.68
30073;BME280;16897;52.422;13.678;2022-11-02T12:51:37;101591.78;;;17.02;60.22
30073;BME280;16897;52.422;13.678;2022-11-02T12:55:46;101595.25;;;17.02;60.14
30073;BME280;16897;52.422;13.678;2022-11-02T12:59:54;101585.84;;;16.98;60.08
30073;BME280;16897;52.422;13.678;2022-11-02T13:04:12;101578.16;;;16.95;59.90
30073;BME280;16897;52.422;13.678;2022-11-02T13:08:21;101574.88;;;16.92;60.19
30073;BME280;16897;52.422;13.678;2022-11-02T13:12:25;101562.22;;;16.84;59.74
30073;BME280;16897;52.422;13.678;2022-11-02T13:16:42;101592.31;;;16.94;59.89
30073;BME280;16897;52.422;13.678;2022-11-02T13:20:51;101567.41;;;16.86;59.69
30073;BME280;16897;52.422;13.678;2022-11-02T13:25:02;101588.81;;;16.94;59.67
30073;BME280;16897;52.422;13.678;2022-11-02T13:29:35;101581.41;;;16.86;59.27
30073;BME280;16897;52.422;13.678;2022-11-02T13:33:45;101568.44;;;16.83;59.48
30073;BME280;16897;52.422;13.678;2022-11-02T13:37:54;101594.63;;;16.99;59.31
30073;BME280;16897;52.422;13.678;2022-11-02T13:42:22;101579.09;;;16.94;59.20
30073;BME280;16897;52.422;13.678;2022-11-02T13:51:02;101582.91;;;17.03;58.80
30073;BME280;16897;52.422;13.678;2022-11-02T13:55:07;101581.84;;;17.06;58.91
30073;BME280;16897;52.422;13.678;2022-11-02T13:59:34;101577.00;;;16.99;58.50
30073;BME280;16897;52.422;13.678;2022-11-02T14:03:52;101573.19;;;17.03;58.44
30073;BME280;16897;52.422;13.678;2022-11-02T14:08:02;101584.94;;;17.12;58.42
30073;BME280;16897;52.422;13.678;2022-11-02T14:16:56;101576.78;;;17.15;58.29
30073;BME280;16897;52.422;13.678;2022-11-02T14:21:39;101590.59;;;17.19;58.05
30073;BME280;16897;52.422;13.678;2022-11-02T14:25:47;101592.19;;;17.21;58.25
30073;BME280;16897;52.422;13.678;2022-11-02T14:29:52;101584.72;;;17.15;57.80
30073;BME280;16897;52.422;13.678;2022-11-02T14:47:13;101592.94;;;16.98;57.82
30073;BME280;16897;52.422;13.678;2022-11-02T14:51:29;101623.03;;;17.08;57.46
30073;BME280;16897;52.422;13.678;2022-11-02T14:55:35;101621.44;;;17.06;57.75
30073;BME280;16897;52.422;13.678;2022-11-02T14:59:43;101626.31;;;16.99;57.63
30073;BME280;16897;52.422;13.678;2022-11-02T15:03:46;101600.53;;;16.77;57.61
30073;BME280;16897;52.422;13.678;2022-11-02T15:07:58;101649.72;;;17.03;57.50
30073;BME280;16897;52.422;13.678;2022-11-02T15:12:27;101667.66;;;16.98;57.28
30073;BME280;16897;52.422;13.678;2022-11-02T15:16:39;101654.03;;;16.92;57.17
30073;BME280;16897;52.422;13.678;2022-11-02T15:20:41;101658.34;;;16.93;57.12
30073;BME280;16897;52.422;13.678;2022-11-02T15:24:44;101663.97;;;16.88;57.24
30073;BME280;16897;52.422;13.678;2022-11-02T15:28:57;101652.19;;;16.79;56.95
30073;BME280;16897;52.422;13.678;2022-11-02T15:33:04;101664.56;;;16.79;57.01
30073;BME280;16897;52.422;13.678;2022-11-02T15:37:07;101647.28;;;16.60;56.91
30073;BME280;16897;52.422;13.678;2022-11-02T15:41:35;101672.94;;;16.71;56.86
30073;BME280;16897;52.422;13.678;2022-11-02T15:50:38;101690.88;;;16.66;56.85
30073;BME280;16897;52.422;13.678;2022-11-02T15:59:37;101705.13;;;16.49;56.49
30073;BME280;16897;52.422;13.678;2022-11-02T16:03:48;101692.44;;;16.42;56.57
30073;BME280;16897;52.422;13.678;2022-11-02T16:07:53;101698.03;;;16.37;56.49
30073;BME280;16897;52.422;13.678;2022-11-02T16:12:20;101697.19;;;16.36;56.42
30073;BME280;16897;52.422;13.678;2022-11-02T16:16:22;101695.97;;;16.28;56.32
30073;BME280;16897;52.422;13.678;2022-11-02T16:20:33;101698.91;;;16.23;56.06
30073;BME280;16897;52.422;13.678;2022-11-02T16:24:46;101710.94;;;16.27;56.21
30073;BME280;16897;52.422;13.678;2022-11-02T16:28:52;101673.81;;;16.03;56.04
30073;BME280;16897;52.422;13.678;2022-11-02T16:32:59;101706.25;;;16.18;55.97
30073;BME280;16897;52.422;13.678;2022-11-02T16:37:02;101726.31;;;16.21;56.18
30073;BME280;16897;52.422;13.678;2022-11-02T16:41:07;101727.53;;;16.15;55.86
30073;BME280;16897;52.422;13.678;2022-11-02T16:49:56;101732.63;;;16.04;56.15
30073;BME280;16897;52.422;13.678;2022-11-02T16:58:28;101718.13;;;15.82;55.81
30073;BME280;16897;52.422;13.678;2022-11-02T17:02:37;101741.38;;;15.90;55.95
30073;BME280;16897;52.422;13.678;2022-11-02T17:06:40;101736.56;;;15.82;55.72
30073;BME280;16897;52.422;13.678;2022-11-02T17:10:43;101758.13;;;15.89;55.79
30073;BME280;16897;52.422;13.678;2022-11-02T17:14:48;101749.34;;;15.74;56.05
30073;BME280;16897;52.422;13.678;2022-11-02T17:18:50;101758.97;;;15.75;55.60
30073;BME280;16897;52.422;13.678;2022-11-02T17:22:56;101765.16;;;15.74;55.69
30073;BME280;16897;52.422;13.678;2022-11-02T17:27:24;101766.72;;;15.62;55.49
30073;BME280;16897;52.422;13.678;2022-11-02T17:31:33;101759.28;;;15.55;55.64
30073;BME280;16897;52.422;13.678;2022-11-02T17:35:36;101757.59;;;15.54;55.65
30073;BME280;16897;52.422;13.678;2022-11-02T17:39:44;101764.91;;;15.48;55.63
30073;BME280;16897;52.422;13.678;2022-11-02T17:43:46;101778.00;;;15.50;55.65
30073;BME280;16897;52.422;13.678;2022-11-02T17:47:47;101791.91;;;15.52;55.64
30073;BME280;16897;52.422;13.678;2022-11-02T17:51:49;101787.00;;;15.46;55.75
30073;BME280;16897;52.422;13.678;2022-11-02T17:55:50;101744.91;;;15.16;55.70
30073;BME280;16897;52.422;13.678;2022-11-02T17:59:52;101784.34;;;15.32;55.53
30073;BME280;16897;52.422;13.678;2022-11-02T18:03:54;101788.06;;;15.27;55.77
30073;BME280;16897;52.422;13.678;2022-11-02T18:07:57;101797.81;;;15.25;55.54
30073;BME280;16897;52.422;13.678;2022-11-02T18:11:59;101791.31;;;15.17;55.69
30073;BME280;16897;52.422;13.678;2022-11-02T18:16:00;101794.13;;;15.14;55.42
30073;BME280;16897;52.422;13.678;2022-11-02T18:20:02;101778.13;;;15.02;55.55
30073;BME280;16897;52.422;13.678;2022-11-02T18:24:04;101797.97;;;15.08;55.58
30073;BME280;16897;52.422;13.678;2022-11-02T18:28:07;101797.63;;;14.98;55.49
30073;BME280;16897;52.422;13.678;2022-11-02T18:32:08;101786.09;;;14.85;55.63
30073;BME280;16897;52.422;13.678;2022-11-02T18:36:10;101800.72;;;14.91;55.65
30073;BME280;16897;52.422;13.678;2022-11-02T18:40:16;101802.22;;;14.79;55.84
30073;BME280;16897;52.422;13.678;2022-11-02T18:44:18;101816.50;;;14.75;55.58
30073;BME280;16897;52.422;13.678;2022-11-02T18:48:19;101760.41;;;14.43;55.65
30073;BME280;16897;52.422;13.678;2022-11-02T18:52:21;101786.41;;;14.47;55.56
30073;BME280;16897;52.422;13.678;2022-11-02T18:56:23;101815.25;;;14.49;55.43
30073;BME280;16897;52.422;13.678;2022-11-02T19:00:24;101810.97;;;14.30;55.38
30073;BME280;16897;52.422;13.678;2022-11-02T19:04:26;101804.84;;;14.14;55.39
30073;BME280;16897;52.422;13.678;2022-11-02T19:08:27;101803.09;;;13.97;55.44
30073;BME280;16897;52.422;13.678;2022-11-02T19:12:49;101807.81;;;13.90;55.40
30073;BME280;16897;52.422;13.678;2022-11-02T19:16:51;101805.16;;;13.75;55.45
30073;BME280;16897;52.422;13.678;2022-11-02T19:20:52;101800.03;;;13.71;55.35
30073;BME280;16897;52.422;13.678;2022-11-02T19:24:54;101812.06;;;13.58;55.46
30073;BME280;16897;52.422;13.678;2022-11-02T19:28:56;101808.69;;;13.39;55.24
30073;BME280;16897;52.422;13.678;2022-11-02T19:32:57;101814.38;;;13.30;55.50
30073;BME280;16897;52.422;13.678;2022-11-02T19:36:59;101805.44;;;13.15;55.46
30073;BME280;16897;52.422;13.678;2022-11-02T19:41:07;101819.06;;;13.04;55.43
30073;BME280;16897;52.422;13.678;2022-11-02T19:45:10;101815.22;;;12.94;55.39
30073;BME280;16897;52.422;13.678;2022-11-02T19:49:17;101803.34;;;12.68;55.34
30073;BME280;16897;52.422;13.678;2022-11-02T19:53:18;101831.22;;;12.69;55.54
30073;BME280;16897;52.422;13.678;2022-11-02T19:57:20;101836.69;;;12.64;55.71
30073;BME280;16897;52.422;13.678;2022-11-02T20:01:26;101824.28;;;12.49;55.64
30073;BME280;16897;52.422;13.678;2022-11-02T20:05:30;101847.53;;;12.56;55.81
30073;BME280;16897;52.422;13.678;2022-11-02T20:09:32;101822.00;;;12.41;55.78
30073;BME280;16897;52.422;13.678;2022-11-02T20:13:35;101833.44;;;12.40;55.70
30073;BME280;16897;52.422;13.678;2022-11-02T20:17:37;101844.66;;;12.42;55.58
30073;BME280;16897;52.422;13.678;2022-11-02T20:21:39;101828.91;;;12.23;55.72
30073;BME280;16897;52.422;13.678;2022-11-02T20:25:41;101842.00;;;12.23;55.77
30073;BME280;16897;52.422;13.678;2022-11-02T20:29:43;101847.16;;;12.26;55.92
30073;BME280;16897;52.422;13.678;2022-11-02T20:33:45;101846.34;;;12.24;55.75
30073;BME280;16897;52.422;13.678;2022-11-02T20:37:47;101852.56;;;12.22;55.76
30073;BME280;16897;52.422;13.678;2022-11-02T20:41:49;101792.41;;;11.79;55.88
30073;BME280;16897;52.422;13.678;2022-11-02T20:46:02;101802.88;;;11.79;55.94
30073;BME280;16897;52.422;13.678;2022-11-02T20:50:05;101815.06;;;11.80;55.87
30073;BME280;16897;52.422;13.678;2022-11-02T20:54:07;101855.97;;;12.03;55.85
30073;BME280;16897;52.422;13.678;2022-11-02T20:58:09;101866.78;;;11.95;55.86
30073;BME280;16897;52.422;13.678;2022-11-02T21:02:10;101857.78;;;11.81;55.80
30073;BME280;16897;52.422;13.678;2022-11-02T21:06:12;101859.28;;;11.66;55.87
30073;BME280;16897;52.422;13.678;2022-11-02T21:10:14;101843.34;;;11.50;55.80
30073;BME280;16897;52.422;13.678;2022-11-02T21:14:16;101836.06;;;11.36;55.98
30073;BME280;16897;52.422;13.678;2022-11-02T21:18:17;101860.72;;;11.30;55.67
30073;BME280;16897;52.422;13.678;2022-11-02T21:22:19;101864.41;;;11.25;55.93
30073;BME280;16897;52.422;13.678;2022-11-02T21:26:20;101857.09;;;11.13;55.92
30073;BME280;16897;52.422;13.678;2022-11-02T21:30:22;101840.47;;;10.92;55.92
30073;BME280;16897;52.422;13.678;2022-11-02T21:34:24;101838.25;;;10.81;56.11
30073;BME280;16897;52.422;13.678;2022-11-02T21:38:26;101869.38;;;10.87;55.88
30073;BME280;16897;52.422;13.678;2022-11-02T21:42:28;101846.50;;;10.70;55.99
30073;BME280;16897;52.422;13.678;2022-11-02T21:46:30;101838.38;;;10.54;56.04
30073;BME280;16897;52.422;13.678;2022-11-02T21:50:31;101853.09;;;10.57;56.09
30073;BME280;16897;52.422;13.678;2022-11-02T21:54:33;101855.94;;;10.51;56.12
30073;BME280;16897;52.422;13.678;2022-11-02T21:58:35;101861.47;;;10.41;55.87
30073;BME280;16897;52.422;13.678;2022-11-02T22:02:37;101838.84;;;10.17;55.99
30073;BME280;16897;52.422;13.678;2022-11-02T22:06:39;101869.81;;;10.28;56.07
30073;BME280;16897;52.422;13.678;2022-11-02T22:10:41;101847.78;;;10.10;55.87
30073;BME280;16897;52.422;13.678;2022-11-02T22:14:43;101855.72;;;10.07;56.20
30073;BME280;16897;52.422;13.678;2022-11-02T22:18:47;101845.59;;;9.97;56.07
30073;BME280;16897;52.422;13.678;2022-11-02T22:22:49;101849.22;;;9.93;56.15
30073;BME280;16897;52.422;13.678;2022-11-02T22:26:51;101848.69;;;9.84;55.99
30073;BME280;16897;52.422;13.678;2022-11-02T22:30:52;101843.84;;;9.73;56.05
30073;BME280;16897;52.422;13.678;2022-11-02T22:34:54;101834.50;;;9.66;56.22
30073;BME280;16897;52.422;13.678;2022-11-02T22:38:57;101828.91;;;9.51;56.06
30073;BME280;16897;52.422;13.678;2022-11-02T22:42:59;101848.84;;;9.52;56.26
30073;BME280;16897;52.422;13.678;2022-11-02T22:47:00;101847.91;;;9.55;56.33
30073;BME280;16897;52.422;13.678;2022-11-02T22:51:03;101837.09;;;9.41;56.29
30073;BME280;16897;52.422;13.678;2022-11-02T22:55:06;101840.63;;;9.38;56.50
30073;BME280;16897;52.422;13.678;2022-11-02T22:59:08;101819.41;;;9.22;56.34
30073;BME280;16897;52.422;13.678;2022-11-02T23:03:10;101846.84;;;9.34;56.46
30073;BME280;16897;52.422;13.678;2022-11-02T23:07:11;101831.47;;;9.26;56.34
30073;BME280;16897;52.422;13.678;2022-11-02T23:11:15;101789.06;;;8.93;56.25
30073;BME280;16897;52.422;13.678;2022-11-02T23:15:25;101839.56;;;9.17;56.51